sensor_id;sensor_type;location;lat;lon;timestamp;pressure;altitude;pressure_sealevel;temperature;humidity
6132;BME280;3097;42.692;23.278;2023-11-21T00:02:13;94851.75;;;5.50;89.30
6132;BME280;3097;42.692;23.278;2023-11-21T00:04:39;94854.13;;;5.52;89.14
6132;BME280;3097;42.692;23.278;2023-11-21T00:07:04;94853.72;;;5.48;89.08
6132;BME280;3097;42.692;23.278;2023-11-21T00:09:31;94854.94;;;5.59;89.90
6132;BME280;3097;42.692;23.278;2023-11-21T00:11:57;94856.53;;;5.66;89.44
6132;BME280;3097;42.692;23.278;2023-11-21T00:14:24;94838.22;;;5.56;88.51
6132;BME280;3097;42.692;23.278;2023-11-21T00:16:50;94862.44;;;5.67;87.97
6132;BME280;3097;42.692;23.278;2023-11-21T00:19:16;94861.84;;;5.65;87.78
6132;BME280;3097;42.692;23.278;2023-11-21T00:21:42;94864.00;;;5.61;88.50
6132;BME280;3097;42.692;23.278;2023-11-21T00:24:10;94826.56;;;5.40;88.47
6132;BME280;3097;42.692;23.278;2023-11-21T00:26:35;94854.56;;;5.62;88.86
6132;BME280;3097;42.692;23.278;2023-11-21T00:29:03;94851.41;;;5.60;88.60
6132;BME280;3097;42.692;23.278;2023-11-21T00:31:28;94848.84;;;5.60;89.14
6132;BME280;3097;42.692;23.278;2023-11-21T00:33:56;94857.31;;;5.60;89.08
6132;BME280;3097;42.692;23.278;2023-11-21T00:36:21;94849.81;;;5.59;88.97
6132;BME280;3097;42.692;23.278;2023-11-21T00:38:47;94845.47;;;5.53;88.96
6132;BME280;3097;42.692;23.278;2023-11-21T00:41:13;94854.75;;;5.60;89.08
6132;BME280;3097;42.692;23.278;2023-11-21T00:43:39;94820.66;;;5.40;88.95
6132;BME280;3097;42.692;23.278;2023-11-21T00:46:05;94853.78;;;5.61;89.10
6132;BME280;3097;42.692;23.278;2023-11-21T00:48:33;94855.91;;;5.58;88.90
6132;BME280;3097;42.692;23.278;2023-11-21T00:50:58;94856.88;;;5.57;89.06
6132;BME280;3097;42.692;23.278;2023-11-21T00:53:24;94832.84;;;5.44;89.03
6132;BME280;3097;42.692;23.278;2023-11-21T00:55:49;94833.63;;;5.45;89.01
6132;BME280;3097;42.692;23.278;2023-11-21T00:58:17;94842.91;;;5.53;88.87
6132;BME280;3097;42.692;23.278;2023-11-21T01:00:43;94794.03;;;5.28;89.50
6132;BME280;3097;42.692;23.278;2023-11-21T01:03:09;94834.28;;;5.54;88.69
6132;BME280;3097;42.692;23.278;2023-11-21T01:05:34;94842.31;;;5.51;88.51
6132;BME280;3097;42.692;23.278;2023-11-21T01:08:00;94844.06;;;5.43;88.31
6132;BME280;3097;42.692;23.278;2023-11-21T01:10:25;94823.72;;;5.29;88.36
6132;BME280;3097;42.692;23.278;2023-11-21T01:12:51;94826.47;;;5.27;88.80
6132;BME280;3097;42.692;23.278;2023-11-21T01:15:16;94830.44;;;5.30;88.81
6132;BME280;3097;42.692;23.278;2023-11-21T01:17:42;94830.59;;;5.28;88.80
6132;BME280;3097;42.692;23.278;2023-11-21T01:20:08;94808.50;;;5.07;88.78
6132;BME280;3097;42.692;23.278;2023-11-21T01:22:36;94831.94;;;5.18;88.81
6132;BME280;3097;42.692;23.278;2023-11-21T01:25:02;94843.31;;;5.15;89.00
6132;BME280;3097;42.692;23.278;2023-11-21T01:27:32;94843.69;;;5.12;89.28
6132;BME280;3097;42.692;23.278;2023-11-21T01:29:57;94841.34;;;5.11;89.30
6132;BME280;3097;42.692;23.278;2023-11-21T01:32:22;94842.69;;;5.06;89.20
6132;BME280;3097;42.692;23.278;2023-11-21T01:34:50;94834.41;;;5.04;89.48
6132;BME280;3097;42.692;23.278;2023-11-21T01:37:15;94844.63;;;5.04;89.62
6132;BME280;3097;42.692;23.278;2023-11-21T01:39:43;94840.53;;;5.03;89.40
6132;BME280;3097;42.692;23.278;2023-11-21T01:42:09;94844.03;;;5.02;89.46
6132;BME280;3097;42.692;23.278;2023-11-21T01:44:35;94844.22;;;5.01;89.19
6132;BME280;3097;42.692;23.278;2023-11-21T01:47:01;94836.94;;;4.98;89.09
6132;BME280;3097;42.692;23.278;2023-11-21T01:49:34;94807.00;;;4.85;89.53
6132;BME280;3097;42.692;23.278;2023-11-21T01:52:00;94827.09;;;4.95;89.48
6132;BME280;3097;42.692;23.278;2023-11-21T01:54:27;94826.28;;;4.88;89.40
6132;BME280;3097;42.692;23.278;2023-11-21T01:56:57;94815.78;;;4.76;89.64
6132;BME280;3097;42.692;23.278;2023-11-21T01:59:29;94821.28;;;4.73;89.59
6132;BME280;3097;42.692;23.278;2023-11-21T02:01:59;94828.19;;;4.79;89.15
6132;BME280;3097;42.692;23.278;2023-11-21T02:04:24;94827.94;;;4.74;89.14
6132;BME280;3097;42.692;23.278;2023-11-21T02:06:50;94832.44;;;4.72;88.90
6132;BME280;3097;42.692;23.278;2023-11-21T02:09:16;94844.25;;;4.73;88.82
6132;BME280;3097;42.692;23.278;2023-11-21T02:11:43;94829.25;;;4.63;89.31
6132;BME280;3097;42.692;23.278;2023-11-21T02:14:09;94793.72;;;4.41;89.57
6132;BME280;3097;42.692;23.278;2023-11-21T02:16:35;94796.91;;;4.43;89.58
6132;BME280;3097;42.692;23.278;2023-11-21T02:19:02;94831.97;;;4.62;89.51
6132;BME280;3097;42.692;23.278;2023-11-21T02:21:29;94827.09;;;4.67;89.51
6132;BME280;3097;42.692;23.278;2023-11-21T02:23:55;94827.31;;;4.65;89.84
6132;BME280;3097;42.692;23.278;2023-11-21T02:26:21;94834.16;;;4.65;89.82
6132;BME280;3097;42.692;23.278;2023-11-21T02:28:46;94823.16;;;4.64;89.96
6132;BME280;3097;42.692;23.278;2023-11-21T02:31:13;94828.44;;;4.63;90.08
6132;BME280;3097;42.692;23.278;2023-11-21T02:33:38;94830.66;;;4.66;89.94
6132;BME280;3097;42.692;23.278;2023-11-21T02:36:04;94829.25;;;4.63;89.91
6132;BME280;3097;42.692;23.278;2023-11-21T02:38:30;94798.09;;;4.47;90.01
6132;BME280;3097;42.692;23.278;2023-11-21T02:40:57;94824.53;;;4.67;89.70
6132;BME280;3097;42.692;23.278;2023-11-21T02:43:24;94822.38;;;4.64;89.51
6132;BME280;3097;42.692;23.278;2023-11-21T02:45:49;94819.81;;;4.64;89.46
6132;BME280;3097;42.692;23.278;2023-11-21T02:48:15;94822.56;;;4.62;89.55
6132;BME280;3097;42.692;23.278;2023-11-21T02:50:40;94823.34;;;4.63;89.71
6132;BME280;3097;42.692;23.278;2023-11-21T02:53:06;94824.13;;;4.63;89.72
6132;BME280;3097;42.692;23.278;2023-11-21T02:55:32;94815.81;;;4.55;89.38
6132;BME280;3097;42.692;23.278;2023-11-21T02:58:01;94820.56;;;4.58;89.76
6132;BME280;3097;42.692;23.278;2023-11-21T03:00:26;94819.16;;;4.55;89.86
6132;BME280;3097;42.692;23.278;2023-11-21T03:02:52;94812.66;;;4.53;89.49
6132;BME280;3097;42.692;23.278;2023-11-21T03:05:18;94815.59;;;4.50;89.24
6132;BME280;3097;42.692;23.278;2023-11-21T03:07:44;94811.41;;;4.42;89.18
6132;BME280;3097;42.692;23.278;2023-11-21T03:10:09;94813.34;;;4.40;88.95
6132;BME280;3097;42.692;23.278;2023-11-21T03:12:36;94829.47;;;4.41;89.57
6132;BME280;3097;42.692;23.278;2023-11-21T03:15:02;94818.47;;;4.40;89.78
6132;BME280;3097;42.692;23.278;2023-11-21T03:17:28;94821.38;;;4.37;89.80
6132;BME280;3097;42.692;23.278;2023-11-21T03:19:54;94828.22;;;4.37;89.83
6132;BME280;3097;42.692;23.278;2023-11-21T03:22:20;94816.59;;;4.27;89.89
6132;BME280;3097;42.692;23.278;2023-11-21T03:24:45;94823.06;;;4.30;90.17
6132;BME280;3097;42.692;23.278;2023-11-21T03:27:11;94831.78;;;4.36;90.48
6132;BME280;3097;42.692;23.278;2023-11-21T03:29:37;94834.13;;;4.37;90.35
6132;BME280;3097;42.692;23.278;2023-11-21T03:32:03;94837.13;;;4.41;90.21
6132;BME280;3097;42.692;23.278;2023-11-21T03:34:29;94832.81;;;4.41;90.39
6132;BME280;3097;42.692;23.278;2023-11-21T03:36:55;94828.22;;;4.37;91.26
6132;BME280;3097;42.692;23.278;2023-11-21T03:39:20;94833.22;;;4.45;90.85
6132;BME280;3097;42.692;23.278;2023-11-21T03:41:47;94796.78;;;4.29;90.44
6132;BME280;3097;42.692;23.278;2023-11-21T03:44:13;94812.66;;;4.53;90.46
6132;BME280;3097;42.692;23.278;2023-11-21T03:46:38;94810.72;;;4.55;89.89
6132;BME280;3097;42.692;23.278;2023-11-21T03:49:04;94807.19;;;4.56;89.56
6132;BME280;3097;42.692;23.278;2023-11-21T03:51:29;94802.84;;;4.50;90.30
6132;BME280;3097;42.692;23.278;2023-11-21T03:53:55;94805.97;;;4.52;90.44
6132;BME280;3097;42.692;23.278;2023-11-21T03:56:20;94805.97;;;4.52;90.35
6132;BME280;3097;42.692;23.278;2023-11-21T03:58:48;94807.72;;;4.51;89.88
6132;BME280;3097;42.692;23.278;2023-11-21T04:01:24;94803.63;;;4.50;89.70
6132;BME280;3097;42.692;23.278;2023-11-21T04:03:50;94802.84;;;4.50;89.89
6132;BME280;3097;42.692;23.278;2023-11-21T04:06:17;94796.75;;;4.51;89.96
6132;BME280;3097;42.692;23.278;2023-11-21T04:08:44;94792.16;;;4.40;89.85
6132;BME280;3097;42.692;23.278;2023-11-21T04:11:10;94759.69;;;4.27;89.77
6132;BME280;3097;42.692;23.278;2023-11-21T04:13:40;94793.97;;;4.46;89.92
6132;BME280;3097;42.692;23.278;2023-11-21T04:16:07;94796.50;;;4.46;89.98
6132;BME280;3097;42.692;23.278;2023-11-21T04:18:33;94800.66;;;4.47;90.03
6132;BME280;3097;42.692;23.278;2023-11-21T04:20:59;94801.63;;;4.46;90.19
6132;BME280;3097;42.692;23.278;2023-11-21T04:23:25;94719.97;;;3.90;90.30
6132;BME280;3097;42.692;23.278;2023-11-21T04:25:51;94794.94;;;4.45;90.60
6132;BME280;3097;42.692;23.278;2023-11-21T04:28:17;94800.03;;;4.45;90.64
6132;BME280;3097;42.692;23.278;2023-11-21T04:30:44;94805.75;;;4.47;90.36
6132;BME280;3097;42.692;23.278;2023-11-21T04:33:10;94800.47;;;4.48;90.06
6132;BME280;3097;42.692;23.278;2023-11-21T04:35:36;94798.88;;;4.47;90.04
6132;BME280;3097;42.692;23.278;2023-11-21T04:38:04;94800.25;;;4.43;91.03
6132;BME280;3097;42.692;23.278;2023-11-21T04:40:30;94799.69;;;4.48;91.34
6132;BME280;3097;42.692;23.278;2023-11-21T04:42:55;94768.72;;;4.29;91.33
6132;BME280;3097;42.692;23.278;2023-11-21T04:45:22;94783.94;;;4.44;90.94
6132;BME280;3097;42.692;23.278;2023-11-21T04:47:48;94808.00;;;4.56;90.74
6132;BME280;3097;42.692;23.278;2023-11-21T04:50:13;94808.97;;;4.55;90.96
6132;BME280;3097;42.692;23.278;2023-11-21T04:52:39;94818.03;;;4.58;90.55
6132;BME280;3097;42.692;23.278;2023-11-21T04:55:07;94786.06;;;4.41;90.66
6132;BME280;3097;42.692;23.278;2023-11-21T04:57:36;94807.19;;;4.56;90.48
6132;BME280;3097;42.692;23.278;2023-11-21T05:00:03;94813.28;;;4.55;90.89
6132;BME280;3097;42.692;23.278;2023-11-21T05:02:32;94799.69;;;4.48;90.85
6132;BME280;3097;42.692;23.278;2023-11-21T05:04:59;94810.28;;;4.51;91.16
6132;BME280;3097;42.692;23.278;2023-11-21T05:07:25;94810.38;;;4.58;90.99
6132;BME280;3097;42.692;23.278;2023-11-21T05:09:54;94806.81;;;4.59;90.89
6132;BME280;3097;42.692;23.278;2023-11-21T05:12:21;94794.03;;;4.59;90.73
6132;BME280;3097;42.692;23.278;2023-11-21T05:14:48;94797.38;;;4.59;91.13
6132;BME280;3097;42.692;23.278;2023-11-21T05:17:14;94802.88;;;4.56;91.33
6132;BME280;3097;42.692;23.278;2023-11-21T05:19:39;94791.59;;;4.44;91.53
6132;BME280;3097;42.692;23.278;2023-11-21T05:22:05;94800.50;;;4.55;91.68
6132;BME280;3097;42.692;23.278;2023-11-21T05:24:31;94797.38;;;4.59;91.52
6132;BME280;3097;42.692;23.278;2023-11-21T05:26:57;94808.44;;;4.66;90.98
6132;BME280;3097;42.692;23.278;2023-11-21T05:29:23;94813.19;;;4.70;91.00
6132;BME280;3097;42.692;23.278;2023-11-21T05:31:49;94796.25;;;4.62;90.86
6132;BME280;3097;42.692;23.278;2023-11-21T05:34:15;94819.47;;;4.74;90.87
6132;BME280;3097;42.692;23.278;2023-11-21T05:36:43;94814.19;;;4.75;90.72
6132;BME280;3097;42.692;23.278;2023-11-21T05:39:08;94813.41;;;4.75;90.96
6132;BME280;3097;42.692;23.278;2023-11-21T05:41:35;94813.22;;;4.76;90.95
6132;BME280;3097;42.692;23.278;2023-11-21T05:44:00;94817.94;;;4.73;91.31
6132;BME280;3097;42.692;23.278;2023-11-21T05:46:26;94817.53;;;4.76;91.28
6132;BME280;3097;42.692;23.278;2023-11-21T05:48:51;94807.75;;;4.79;91.27
6132;BME280;3097;42.692;23.278;2023-11-21T05:51:17;94813.88;;;4.85;91.09
6132;BME280;3097;42.692;23.278;2023-11-21T05:53:42;94801.53;;;4.88;90.62
6132;BME280;3097;42.692;23.278;2023-11-21T05:56:08;94807.41;;;4.89;91.00
6132;BME280;3097;42.692;23.278;2023-11-21T05:58:33;94803.50;;;4.93;90.82
6132;BME280;3097;42.692;23.278;2023-11-21T06:00:59;94779.47;;;4.81;90.41
6132;BME280;3097;42.692;23.278;2023-11-21T06:03:24;94803.75;;;5.04;90.23
6132;BME280;3097;42.692;23.278;2023-11-21T06:05:50;94797.59;;;4.92;89.87
6132;BME280;3097;42.692;23.278;2023-11-21T06:08:15;94811.41;;;5.04;89.85
6132;BME280;3097;42.692;23.278;2023-11-21T06:10:42;94811.84;;;5.08;89.86
6132;BME280;3097;42.692;23.278;2023-11-21T06:13:09;94818.53;;;5.09;89.64
6132;BME280;3097;42.692;23.278;2023-11-21T06:15:35;94820.91;;;5.11;90.09
6132;BME280;3097;42.692;23.278;2023-11-21T06:18:01;94811.03;;;5.01;89.95
6132;BME280;3097;42.692;23.278;2023-11-21T06:20:26;94818.97;;;5.19;90.00
6132;BME280;3097;42.692;23.278;2023-11-21T06:22:53;94819.38;;;5.23;90.01
6132;BME280;3097;42.692;23.278;2023-11-21T06:25:19;94825.69;;;5.27;89.52
6132;BME280;3097;42.692;23.278;2023-11-21T06:27:48;94811.72;;;5.23;89.00
6132;BME280;3097;42.692;23.278;2023-11-21T06:30:14;94834.41;;;5.39;89.03
6132;BME280;3097;42.692;23.278;2023-11-21T06:32:41;94833.81;;;5.43;88.98
6132;BME280;3097;42.692;23.278;2023-11-21T06:35:07;94838.38;;;5.48;88.97
6132;BME280;3097;42.692;23.278;2023-11-21T06:37:37;94842.34;;;5.57;88.98
6132;BME280;3097;42.692;23.278;2023-11-21T06:40:02;94783.63;;;5.23;88.37
6132;BME280;3097;42.692;23.278;2023-11-21T06:42:31;94850.44;;;5.61;88.56
6132;BME280;3097;42.692;23.278;2023-11-21T06:44:58;94834.47;;;5.59;88.00
6132;BME280;3097;42.692;23.278;2023-11-21T06:47:25;94860.91;;;5.79;87.95
6132;BME280;3097;42.692;23.278;2023-11-21T06:49:53;94854.00;;;5.79;87.95
6132;BME280;3097;42.692;23.278;2023-11-21T06:52:19;94828.25;;;5.74;87.27
6132;BME280;3097;42.692;23.278;2023-11-21T06:54:45;94848.38;;;5.91;87.07
6132;BME280;3097;42.692;23.278;2023-11-21T06:57:11;94844.25;;;5.96;86.64
6132;BME280;3097;42.692;23.278;2023-11-21T06:59:37;94850.38;;;6.02;86.47
6132;BME280;3097;42.692;23.278;2023-11-21T07:02:02;94844.69;;;6.13;86.14
6132;BME280;3097;42.692;23.278;2023-11-21T07:04:28;94849.81;;;6.19;86.11
6132;BME280;3097;42.692;23.278;2023-11-21T07:06:54;94841.56;;;6.24;85.81
6132;BME280;3097;42.692;23.278;2023-11-21T07:09:20;94847.28;;;6.26;85.35
6132;BME280;3097;42.692;23.278;2023-11-21T07:11:49;94841.00;;;6.29;85.57
6132;BME280;3097;42.692;23.278;2023-11-21T07:14:15;94841.97;;;6.34;85.48
6132;BME280;3097;42.692;23.278;2023-11-21T07:16:42;94830.34;;;6.32;85.31
6132;BME280;3097;42.692;23.278;2023-11-21T07:19:07;94832.13;;;6.38;85.47
6132;BME280;3097;42.692;23.278;2023-11-21T07:21:34;94833.91;;;6.44;85.86
6132;BME280;3097;42.692;23.278;2023-11-21T07:24:00;94834.88;;;6.49;85.58
6132;BME280;3097;42.692;23.278;2023-11-21T07:26:29;94792.16;;;6.37;85.31
6132;BME280;3097;42.692;23.278;2023-11-21T07:28:55;94841.00;;;6.68;85.11
6132;BME280;3097;42.692;23.278;2023-11-21T07:31:22;94843.56;;;6.81;84.98
6132;BME280;3097;42.692;23.278;2023-11-21T07:33:47;94840.38;;;6.92;84.32
6132;BME280;3097;42.692;23.278;2023-11-21T07:36:14;94841.56;;;7.03;84.15
6132;BME280;3097;42.692;23.278;2023-11-21T07:38:39;94820.88;;;6.98;84.04
6132;BME280;3097;42.692;23.278;2023-11-21T07:41:05;94838.56;;;7.19;83.85
6132;BME280;3097;42.692;23.278;2023-11-21T07:43:34;94829.91;;;7.20;83.63
6132;BME280;3097;42.692;23.278;2023-11-21T07:46:04;94830.66;;;7.27;83.18
6132;BME280;3097;42.692;23.278;2023-11-21T07:48:30;94807.81;;;7.19;83.24
6132;BME280;3097;42.692;23.278;2023-11-21T07:50:57;94826.28;;;7.41;82.74
6132;BME280;3097;42.692;23.278;2023-11-21T07:53:24;94823.09;;;7.46;82.86
6132;BME280;3097;42.692;23.278;2023-11-21T07:55:51;94827.22;;;7.53;82.73
6132;BME280;3097;42.692;23.278;2023-11-21T07:58:17;94824.06;;;7.58;82.81
6132;BME280;3097;42.692;23.278;2023-11-21T08:00:43;94820.69;;;7.64;83.19
6132;BME280;3097;42.692;23.278;2023-11-21T08:03:08;94811.16;;;7.71;82.82
6132;BME280;3097;42.692;23.278;2023-11-21T08:05:34;94815.13;;;7.73;83.04
6132;BME280;3097;42.692;23.278;2023-11-21T08:07:59;94812.88;;;7.84;82.84
6132;BME280;3097;42.692;23.278;2023-11-21T08:10:25;94812.63;;;7.92;82.58
6132;BME280;3097;42.692;23.278;2023-11-21T08:12:51;94811.78;;;8.04;82.50
6132;BME280;3097;42.692;23.278;2023-11-21T08:15:17;94821.53;;;8.21;82.78
6132;BME280;3097;42.692;23.278;2023-11-21T08:17:43;94814.31;;;8.42;82.34
6132;BME280;3097;42.692;23.278;2023-11-21T08:20:09;94812.59;;;8.61;81.93
6132;BME280;3097;42.692;23.278;2023-11-21T08:22:36;94815.25;;;8.73;80.30
6132;BME280;3097;42.692;23.278;2023-11-21T08:25:02;94807.00;;;8.89;80.74
6132;BME280;3097;42.692;23.278;2023-11-21T08:27:29;94813.47;;;8.98;79.55
6132;BME280;3097;42.692;23.278;2023-11-21T08:29:55;94813.69;;;9.15;79.81
6132;BME280;3097;42.692;23.278;2023-11-21T08:32:22;94806.84;;;9.27;77.58
6132;BME280;3097;42.692;23.278;2023-11-21T08:34:47;94792.78;;;9.29;78.34
6132;BME280;3097;42.692;23.278;2023-11-21T08:37:16;94809.03;;;9.60;78.00
6132;BME280;3097;42.692;23.278;2023-11-21T08:39:44;94808.00;;;9.79;76.73
6132;BME280;3097;42.692;23.278;2023-11-21T08:42:11;94785.03;;;9.78;76.16
6132;BME280;3097;42.692;23.278;2023-11-21T08:44:36;94783.19;;;9.85;74.85
6132;BME280;3097;42.692;23.278;2023-11-21T08:47:02;94807.53;;;10.00;74.34
6132;BME280;3097;42.692;23.278;2023-11-21T08:49:27;94797.28;;;10.12;74.35
6132;BME280;3097;42.692;23.278;2023-11-21T08:51:54;94803.16;;;10.19;73.28
6132;BME280;3097;42.692;23.278;2023-11-21T08:54:25;94796.09;;;10.26;72.64
6132;BME280;3097;42.692;23.278;2023-11-21T08:56:54;94765.38;;;10.13;73.95
6132;BME280;3097;42.692;23.278;2023-11-21T08:59:20;94787.38;;;10.27;73.53
6132;BME280;3097;42.692;23.278;2023-11-21T09:01:46;94783.47;;;10.36;73.35
6132;BME280;3097;42.692;23.278;2023-11-21T09:04:12;94776.97;;;10.34;73.31
6132;BME280;3097;42.692;23.278;2023-11-21T09:06:39;94754.78;;;10.33;73.52
6132;BME280;3097;42.692;23.278;2023-11-21T09:09:05;94756.91;;;10.24;73.59
6132;BME280;3097;42.692;23.278;2023-11-21T09:11:32;94717.44;;;10.12;73.46
6132;BME280;3097;42.692;23.278;2023-11-21T09:13:59;94743.22;;;10.24;73.05
6132;BME280;3097;42.692;23.278;2023-11-21T09:16:25;94735.28;;;10.25;72.81
6132;BME280;3097;42.692;23.278;2023-11-21T09:18:51;94738.66;;;10.26;72.86
6132;BME280;3097;42.692;23.278;2023-11-21T09:21:17;94667.88;;;9.75;72.78
6132;BME280;3097;42.692;23.278;2023-11-21T09:23:45;94737.19;;;10.18;72.83
6132;BME280;3097;42.692;23.278;2023-11-21T09:26:11;94697.16;;;10.16;73.39
6132;BME280;3097;42.692;23.278;2023-11-21T09:28:37;94703.00;;;10.23;72.07
6132;BME280;3097;42.692;23.278;2023-11-21T09:31:04;94698.53;;;10.18;72.14
6132;BME280;3097;42.692;23.278;2023-11-21T09:33:30;94699.19;;;10.14;72.35
6132;BME280;3097;42.692;23.278;2023-11-21T09:35:57;94659.28;;;9.93;72.18
6132;BME280;3097;42.692;23.278;2023-11-21T09:38:23;94683.38;;;10.10;72.12
6132;BME280;3097;42.692;23.278;2023-11-21T09:40:49;94684.94;;;10.11;72.73
6132;BME280;3097;42.692;23.278;2023-11-21T09:43:18;94685.31;;;10.15;73.71
6132;BME280;3097;42.692;23.278;2023-11-21T09:45:56;94679.06;;;10.34;72.19
6132;BME280;3097;42.692;23.278;2023-11-21T09:48:26;94664.94;;;10.48;70.49
6132;BME280;3097;42.692;23.278;2023-11-21T09:50:53;94650.25;;;10.48;70.80
6132;BME280;3097;42.692;23.278;2023-11-21T09:53:20;94631.00;;;10.39;70.02
6132;BME280;3097;42.692;23.278;2023-11-21T09:55:48;94636.94;;;10.40;70.72
6132;BME280;3097;42.692;23.278;2023-11-21T09:58:15;94643.44;;;10.42;70.09
6132;BME280;3097;42.692;23.278;2023-11-21T10:00:42;94646.47;;;10.39;71.12
6132;BME280;3097;42.692;23.278;2023-11-21T10:03:09;94629.78;;;10.42;71.75
6132;BME280;3097;42.692;23.278;2023-11-21T10:05:36;94635.13;;;10.64;71.73
6132;BME280;3097;42.692;23.278;2023-11-21T10:08:11;94637.69;;;10.64;70.88
6132;BME280;3097;42.692;23.278;2023-11-21T10:10:40;94634.78;;;10.72;71.48
6132;BME280;3097;42.692;23.278;2023-11-21T10:13:12;94626.00;;;10.84;70.95
6132;BME280;3097;42.692;23.278;2023-11-21T10:15:38;94615.91;;;10.83;70.38
6132;BME280;3097;42.692;23.278;2023-11-21T10:18:04;94621.34;;;10.98;70.04
6132;BME280;3097;42.692;23.278;2023-11-21T10:20:32;94611.22;;;11.08;70.13
6132;BME280;3097;42.692;23.278;2023-11-21T10:23:00;94599.13;;;11.09;69.08
6132;BME280;3097;42.692;23.278;2023-11-21T10:25:27;94560.75;;;10.84;68.72
6132;BME280;3097;42.692;23.278;2023-11-21T10:27:57;94610.84;;;11.16;68.51
6132;BME280;3097;42.692;23.278;2023-11-21T10:30:32;94603.34;;;11.15;69.14
6132;BME280;3097;42.692;23.278;2023-11-21T10:32:59;94604.09;;;11.27;68.01
6132;BME280;3097;42.692;23.278;2023-11-21T10:35:38;94605.25;;;11.19;68.28
6132;BME280;3097;42.692;23.278;2023-11-21T10:38:03;94594.59;;;11.16;68.33
6132;BME280;3097;42.692;23.278;2023-11-21T10:40:29;94593.81;;;11.15;68.39
6132;BME280;3097;42.692;23.278;2023-11-21T10:43:06;94491.06;;;10.51;68.11
6132;BME280;3097;42.692;23.278;2023-11-21T10:45:31;94593.50;;;11.12;68.82
6132;BME280;3097;42.692;23.278;2023-11-21T10:47:57;94593.66;;;11.22;68.53
6132;BME280;3097;42.692;23.278;2023-11-21T10:50:23;94589.28;;;11.22;67.75
6132;BME280;3097;42.692;23.278;2023-11-21T10:52:49;94564.88;;;11.13;67.60
6132;BME280;3097;42.692;23.278;2023-11-21T10:55:18;94575.84;;;11.20;67.48
6132;BME280;3097;42.692;23.278;2023-11-21T10:57:53;94581.47;;;11.17;68.13
6132;BME280;3097;42.692;23.278;2023-11-21T11:00:19;94581.00;;;11.20;68.36
6132;BME280;3097;42.692;23.278;2023-11-21T11:02:51;94575.47;;;11.29;68.20
6132;BME280;3097;42.692;23.278;2023-11-21T11:05:21;94571.41;;;11.33;67.78
6132;BME280;3097;42.692;23.278;2023-11-21T11:07:51;94563.97;;;11.36;67.86
6132;BME280;3097;42.692;23.278;2023-11-21T11:10:25;94564.22;;;11.35;68.29
6132;BME280;3097;42.692;23.278;2023-11-21T11:12:53;94564.88;;;11.42;67.59
6132;BME280;3097;42.692;23.278;2023-11-21T11:15:19;94556.63;;;11.45;67.59
6132;BME280;3097;42.692;23.278;2023-11-21T11:17:46;94551.47;;;11.45;67.24
6132;BME280;3097;42.692;23.278;2023-11-21T11:20:13;94541.25;;;11.50;66.48
6132;BME280;3097;42.692;23.278;2023-11-21T11:23:13;94542.56;;;11.52;66.65
6132;BME280;3097;42.692;23.278;2023-11-21T11:34:30;94522.84;;;11.63;65.80
6132;BME280;3097;42.692;23.278;2023-11-21T11:37:02;94529.59;;;11.64;64.70
6132;BME280;3097;42.692;23.278;2023-11-21T11:39:36;94526.13;;;11.58;65.82
6132;BME280;3097;42.692;23.278;2023-11-21T11:42:03;94414.25;;;10.81;66.03
6132;BME280;3097;42.692;23.278;2023-11-21T11:47:29;94543.03;;;11.66;66.43
6132;BME280;3097;42.692;23.278;2023-11-21T11:50:09;94545.06;;;11.64;66.94
6132;BME280;3097;42.692;23.278;2023-11-21T11:53:15;94509.63;;;11.43;67.86
6132;BME280;3097;42.692;23.278;2023-11-21T11:55:40;94537.94;;;11.54;69.34
6132;BME280;3097;42.692;23.278;2023-11-21T11:58:07;94526.44;;;11.62;70.74
6132;BME280;3097;42.692;23.278;2023-11-21T12:00:34;94524.03;;;11.55;71.03
6132;BME280;3097;42.692;23.278;2023-11-21T12:03:04;94533.34;;;11.56;71.02
6132;BME280;3097;42.692;23.278;2023-11-21T12:05:32;94531.22;;;11.53;71.36
6132;BME280;3097;42.692;23.278;2023-11-21T12:08:01;94536.09;;;11.50;73.21
6132;BME280;3097;42.692;23.278;2023-11-21T12:10:29;94535.34;;;11.38;73.83
6132;BME280;3097;42.692;23.278;2023-11-21T12:12:56;94534.50;;;11.32;74.28
6132;BME280;3097;42.692;23.278;2023-11-21T12:15:23;94531.94;;;11.32;75.55
6132;BME280;3097;42.692;23.278;2023-11-21T12:17:49;94493.09;;;10.94;77.37
6132;BME280;3097;42.692;23.278;2023-11-21T12:20:18;94466.84;;;10.52;78.71
6132;BME280;3097;42.692;23.278;2023-11-21T12:25:15;94494.06;;;10.59;81.36
6132;BME280;3097;42.692;23.278;2023-11-21T12:27:48;94529.63;;;10.74;81.98
6132;BME280;3097;42.692;23.278;2023-11-21T12:30:15;94508.47;;;10.60;82.16
6132;BME280;3097;42.692;23.278;2023-11-21T12:32:43;94532.25;;;10.62;83.38
6132;BME280;3097;42.692;23.278;2023-11-21T12:35:09;94528.50;;;10.70;82.88
6132;BME280;3097;42.692;23.278;2023-11-21T12:37:37;94528.22;;;10.66;84.08
6132;BME280;3097;42.692;23.278;2023-11-21T12:40:05;94513.97;;;10.64;83.63
6132;BME280;3097;42.692;23.278;2023-11-21T12:42:32;94526.22;;;10.57;83.84
6132;BME280;3097;42.692;23.278;2023-11-21T12:48:02;94499.31;;;10.53;83.84
6132;BME280;3097;42.692;23.278;2023-11-21T12:50:32;94500.81;;;10.48;83.62
6132;BME280;3097;42.692;23.278;2023-11-21T12:53:00;94495.00;;;10.41;83.57
6132;BME280;3097;42.692;23.278;2023-11-21T12:55:30;94490.84;;;10.40;81.71
6132;BME280;3097;42.692;23.278;2023-11-21T12:57:55;94488.47;;;10.51;81.73
6132;BME280;3097;42.692;23.278;2023-11-21T13:00:41;94452.94;;;10.24;81.85
6132;BME280;3097;42.692;23.278;2023-11-21T13:03:09;94478.75;;;10.41;83.50
6132;BME280;3097;42.692;23.278;2023-11-21T13:05:39;94478.81;;;10.58;83.19
6132;BME280;3097;42.692;23.278;2023-11-21T13:08:06;94484.97;;;10.57;83.94
6132;BME280;3097;42.692;23.278;2023-11-21T13:10:34;94477.03;;;10.58;83.86
6132;BME280;3097;42.692;23.278;2023-11-21T13:13:04;94481.47;;;10.63;83.42
6132;BME280;3097;42.692;23.278;2023-11-21T13:15:39;94483.50;;;10.61;83.81
6132;BME280;3097;42.692;23.278;2023-11-21T13:18:06;94443.28;;;10.31;84.41
6132;BME280;3097;42.692;23.278;2023-11-21T13:20:32;94476.69;;;10.55;83.81
6132;BME280;3097;42.692;23.278;2023-11-21T13:22:58;94452.56;;;10.32;83.87
6132;BME280;3097;42.692;23.278;2023-11-21T13:25:29;94464.09;;;10.41;84.35
6132;BME280;3097;42.692;23.278;2023-11-21T13:27:59;94471.31;;;10.56;83.88
6132;BME280;3097;42.692;23.278;2023-11-21T13:30:26;94473.88;;;10.56;83.54
6132;BME280;3097;42.692;23.278;2023-11-21T13:32:53;94469.53;;;10.45;84.12
6132;BME280;3097;42.692;23.278;2023-11-21T13:35:23;94468.22;;;10.42;84.74